createdAt,value
2019-05-05T00:03:00.698Z,96.10
2019-05-05T00:09:02.700Z,96.40
2019-05-05T00:15:09.156Z,96.40
2019-05-05T00:21:10.805Z,96.50
2019-05-05T00:27:12.394Z,96.80
2019-05-05T00:33:14.529Z,96.80
2019-05-05T00:39:16.118Z,97.10
2019-05-05T00:45:17.713Z,97.30
2019-05-05T00:51:19.833Z,97.30
2019-05-05T00:57:21.914Z,97.20
2019-05-05T01:03:25.038Z,97.30
2019-05-05T01:09:28.506Z,96.80
2019-05-05T01:15:30.226Z,97.00
2019-05-05T01:21:31.663Z,97.40
2019-05-05T01:27:34.725Z,97.60
2019-05-05T01:33:47.109Z,98.10
2019-05-05T01:39:50.454Z,98.00
2019-05-05T01:45:52.157Z,98.00
2019-05-05T01:51:55.244Z,97.90
2019-05-05T01:57:57.143Z,98.10
2019-05-05T02:03:58.794Z,98.30
2019-05-05T02:10:00.455Z,98.10
2019-05-05T02:16:04.405Z,98.00
2019-05-05T02:22:05.717Z,98.20
2019-05-05T02:28:07.352Z,98.30
2019-05-05T02:34:10.386Z,98.20
2019-05-05T02:40:15.984Z,98.00
2019-05-05T02:46:37.734Z,97.90
2019-05-05T02:52:40.094Z,98.10
2019-05-05T02:58:44.374Z,98.20
2019-05-05T03:04:46.245Z,98.20
2019-05-05T03:10:48.181Z,98.20
2019-05-05T03:16:50.096Z,98.30
2019-05-05T03:22:51.629Z,98.60
2019-05-05T03:28:55.391Z,98.40
2019-05-05T03:34:57.256Z,98.50
2019-05-05T03:41:00.419Z,98.50
2019-05-05T03:47:03.553Z,98.60
2019-05-05T03:53:05.434Z,98.70
2019-05-05T03:59:07.143Z,98.80
2019-05-05T04:05:16.909Z,98.90
2019-05-05T04:11:18.599Z,99.60
2019-05-05T04:17:31.170Z,99.20
2019-05-05T04:23:33.494Z,99.30
2019-05-05T04:29:35.265Z,99.20
2019-05-05T04:35:36.832Z,99.20
2019-05-05T04:41:38.643Z,98.20
2019-05-05T04:47:43.600Z,97.60
2019-05-05T04:53:47.153Z,97.50
2019-05-05T04:59:50.606Z,97.40
2019-05-05T05:05:56.771Z,97.00
2019-05-05T05:11:58.249Z,95.40
2019-05-05T05:18:04.574Z,94.50
2019-05-05T05:24:06.192Z,93.80
2019-05-05T05:30:08.190Z,94.00
2019-05-05T05:36:09.773Z,94.20
2019-05-05T05:42:13.619Z,93.80
2019-05-05T05:48:17.178Z,93.50
2019-05-05T05:54:18.657Z,91.40
2019-05-05T06:00:20.110Z,88.70
2019-05-05T06:06:21.589Z,86.80
2019-05-05T06:12:24.603Z,86.00
2019-05-05T06:18:26.319Z,86.80
2019-05-05T06:24:27.799Z,89.30
2019-05-05T06:30:29.379Z,87.60
2019-05-05T06:36:30.860Z,82.20
2019-05-05T06:42:34.354Z,79.20
2019-05-05T06:48:35.785Z,75.70
2019-05-05T06:54:37.358Z,74.60
2019-05-05T07:00:38.989Z,73.40
2019-05-05T07:06:51.702Z,69.80
2019-05-05T07:12:44.092Z,69.80
2019-05-05T07:18:45.696Z,69.60
2019-05-05T07:24:49.529Z,68.00
2019-05-05T07:30:51.031Z,67.50
2019-05-05T07:36:54.613Z,63.80
2019-05-05T07:42:55.843Z,64.60
2019-05-05T07:48:57.312Z,68.70
2019-05-05T07:54:58.944Z,73.40
2019-05-05T08:01:01.689Z,76.80
2019-05-05T08:07:04.073Z,76.10
2019-05-05T08:13:05.606Z,76.70
2019-05-05T08:19:21.022Z,73.60
2019-05-05T08:25:40.310Z,76.10
2019-05-05T08:31:50.891Z,77.80
2019-05-05T08:37:54.247Z,77.00
2019-05-05T08:43:55.784Z,76.10
2019-05-05T08:49:57.341Z,73.70
2019-05-05T08:55:58.922Z,62.10
2019-05-05T09:02:00.364Z,64.20
2019-05-05T09:08:04.307Z,65.20
2019-05-05T09:14:05.407Z,62.60
2019-05-05T09:20:07.551Z,64.00
2019-05-05T09:26:27.585Z,61.70
2019-05-05T09:32:29.120Z,58.90
2019-05-05T09:38:34.708Z,61.20
2019-05-05T09:44:36.388Z,62.40
2019-05-05T09:50:38.033Z,62.50
2019-05-05T09:56:39.653Z,62.00
2019-05-05T10:02:41.381Z,59.10
2019-05-05T10:08:44.676Z,56.90
2019-05-05T10:14:46.319Z,56.40
2019-05-05T10:20:48.096Z,52.40
2019-05-05T10:26:49.807Z,51.70
2019-05-05T10:32:51.511Z,54.60
2019-05-05T10:38:57.992Z,55.60
2019-05-05T10:44:59.419Z,58.00
2019-05-05T10:51:04.309Z,50.50
2019-05-05T10:57:06.016Z,53.10
2019-05-05T11:03:07.882Z,52.20
2019-05-05T11:09:09.445Z,52.10
2019-05-05T11:15:11.193Z,49.90
2019-05-05T11:21:14.456Z,49.40
2019-05-05T11:27:16.332Z,51.70
2019-05-05T11:33:36.251Z,52.80
2019-05-05T11:39:37.731Z,50.70
2019-05-05T11:45:39.434Z,46.80
2019-05-05T11:51:41.032Z,47.00
2019-05-05T11:57:43.791Z,43.90
2019-05-05T12:03:47.956Z,44.60
2019-05-05T12:16:07.841Z,43.50
2019-05-05T12:22:09.676Z,45.30
2019-05-05T12:28:24.056Z,45.90
2019-05-05T12:34:26.040Z,42.00
2019-05-05T12:40:27.691Z,44.60
2019-05-05T12:46:34.127Z,42.30
2019-05-05T12:52:35.855Z,41.50
2019-05-05T12:58:37.420Z,42.70
2019-05-05T13:04:50.863Z,42.70
2019-05-05T13:10:55.427Z,42.50
2019-05-05T13:16:58.038Z,46.80
2019-05-05T13:23:16.885Z,44.90
2019-05-05T13:29:18.504Z,43.40
2019-05-05T13:35:20.003Z,45.20
2019-05-05T13:41:21.670Z,46.30
2019-05-05T13:47:23.856Z,42.60
2019-05-05T13:53:25.483Z,40.90
2019-05-05T13:59:27.162Z,42.00
2019-05-05T14:05:28.843Z,44.00
2019-05-05T14:11:30.381Z,41.00
2019-05-05T14:17:32.080Z,43.30
2019-05-05T14:23:35.777Z,45.20
2019-05-05T14:29:39.347Z,47.60
2019-05-05T14:35:45.816Z,45.50
2019-05-05T14:41:47.439Z,45.70
2019-05-05T14:47:48.934Z,44.50
2019-05-05T14:53:50.606Z,43.60
2019-05-05T14:59:54.039Z,44.10
2019-05-05T15:06:06.378Z,42.70
2019-05-05T15:12:09.744Z,45.40
2019-05-05T15:18:11.510Z,47.00
2019-05-05T15:24:14.627Z,48.10
2019-05-05T15:30:16.534Z,50.00
2019-05-05T15:36:18.210Z,50.50
2019-05-05T15:42:19.676Z,51.60
2019-05-05T15:48:21.339Z,55.10
2019-05-05T15:54:23.629Z,57.00
2019-05-05T16:00:25.707Z,59.20
2019-05-05T16:06:27.120Z,56.80
2019-05-05T16:12:34.193Z,54.40
2019-05-05T16:18:34.241Z,53.50
2019-05-05T16:24:37.806Z,51.30
2019-05-05T16:30:39.504Z,52.10
2019-05-05T16:36:41.057Z,55.70
2019-05-05T16:42:43.685Z,60.40
2019-05-05T16:48:45.457Z,62.50
2019-05-05T16:55:04.556Z,63.30
2019-05-05T17:01:09.175Z,63.50
2019-05-05T17:07:10.749Z,62.40
2019-05-05T17:13:30.691Z,61.30
2019-05-05T17:19:34.078Z,55.30
2019-05-05T17:25:35.622Z,56.20
2019-05-05T17:31:37.344Z,58.70
2019-05-05T17:37:38.804Z,60.90
2019-05-05T17:43:47.893Z,62.40
2019-05-05T17:50:04.209Z,65.10
2019-05-05T17:56:09.436Z,65.40
2019-05-05T18:02:11.101Z,67.10
2019-05-05T18:08:31.055Z,68.40
2019-05-05T18:14:34.713Z,67.60
2019-05-05T18:20:36.461Z,67.50
2019-05-05T18:26:38.051Z,68.10
2019-05-05T18:32:39.921Z,70.00
2019-05-05T18:38:41.460Z,71.00
2019-05-05T18:44:45.126Z,72.50
2019-05-05T18:50:47.091Z,72.30
2019-05-05T18:56:48.873Z,73.20
2019-05-05T19:02:53.629Z,73.10
2019-05-05T19:08:57.420Z,73.10
2019-05-05T19:14:58.885Z,74.20
2019-05-05T19:21:11.131Z,75.00
2019-05-05T19:27:14.208Z,75.10
2019-05-05T19:33:16.171Z,75.50
2019-05-05T19:39:17.774Z,74.60
2019-05-05T19:45:19.592Z,74.50
2019-05-05T19:51:21.339Z,74.70
2019-05-05T19:57:22.913Z,74.70
2019-05-05T20:03:24.741Z,74.30
2019-05-05T20:09:26.748Z,75.10
2019-05-05T20:15:35.927Z,77.20
2019-05-05T20:21:37.625Z,77.60
2019-05-05T20:27:39.365Z,78.40
2019-05-05T20:33:43.000Z,76.80
2019-05-05T20:39:44.448Z,77.70
2019-05-05T20:45:47.019Z,79.00
2019-05-05T20:51:48.619Z,80.30
2019-05-05T20:57:53.555Z,81.30
2019-05-05T21:03:54.608Z,83.30
2019-05-05T21:09:56.121Z,85.30
2019-05-05T21:15:57.655Z,86.00
2019-05-05T21:22:01.162Z,88.00
2019-05-05T21:28:03.733Z,88.40
2019-05-05T21:34:06.473Z,89.00
2019-05-05T21:40:08.034Z,90.40
2019-05-05T21:46:09.746Z,90.80
2019-05-05T21:52:20.812Z,91.10
2019-05-05T21:58:25.369Z,91.50
2019-05-05T22:04:27.191Z,92.20
2019-05-05T22:10:30.604Z,92.10
2019-05-05T22:16:33.830Z,92.50
2019-05-05T22:22:37.354Z,92.80
2019-05-05T22:28:39.003Z,92.40
2019-05-05T22:34:40.633Z,92.90
2019-05-05T22:40:44.019Z,93.20
2019-05-05T22:46:46.150Z,93.60
2019-05-05T22:52:49.545Z,93.70
2019-05-05T22:58:51.204Z,94.70
2019-05-05T23:05:00.482Z,95.10
2019-05-05T23:11:04.057Z,94.50
2019-05-05T23:17:10.101Z,95.20
2019-05-05T23:23:34.154Z,95.20
2019-05-05T23:29:36.544Z,95.20
2019-05-05T23:35:38.011Z,95.10
2019-05-05T23:41:39.571Z,95.20
2019-05-05T23:47:41.090Z,95.20
2019-05-05T23:53:44.492Z,95.60
2019-05-05T23:59:46.280Z,95.40
